sensor_id;sensor_type;location;lat;lon;timestamp;temperature;humidity
25092;DHT22;13082;52.374;4.946;2023-04-01T00:00:29;10.40;99.90
25092;DHT22;13082;52.374;4.946;2023-04-01T00:02:55;10.40;99.90
25092;DHT22;13082;52.374;4.946;2023-04-01T00:05:21;10.40;99.90
25092;DHT22;13082;52.374;4.946;2023-04-01T00:07:47;10.30;99.90
25092;DHT22;13082;52.374;4.946;2023-04-01T00:10:15;10.30;99.90
25092;DHT22;13082;52.374;4.946;2023-04-01T00:12:41;10.20;99.90
25092;DHT22;13082;52.374;4.946;2023-04-01T00:15:09;10.30;99.90
25092;DHT22;13082;52.374;4.946;2023-04-01T00:17:35;10.20;99.90
25092;DHT22;13082;52.374;4.946;2023-04-01T00:20:02;10.20;99.90
25092;DHT22;13082;52.374;4.946;2023-04-01T00:22:28;10.20;99.90
25092;DHT22;13082;52.374;4.946;2023-04-01T00:24:54;10.20;99.90
25092;DHT22;13082;52.374;4.946;2023-04-01T00:27:20;10.20;99.90
25092;DHT22;13082;52.374;4.946;2023-04-01T00:29:46;10.20;99.90
25092;DHT22;13082;52.374;4.946;2023-04-01T00:32:13;10.20;99.90
25092;DHT22;13082;52.374;4.946;2023-04-01T00:34:38;10.20;99.90
25092;DHT22;13082;52.374;4.946;2023-04-01T00:37:06;10.10;99.90
25092;DHT22;13082;52.374;4.946;2023-04-01T00:39:32;10.20;99.90
25092;DHT22;13082;52.374;4.946;2023-04-01T00:41:59;10.20;99.90
25092;DHT22;13082;52.374;4.946;2023-04-01T00:44:28;10.20;99.90
25092;DHT22;13082;52.374;4.946;2023-04-01T00:46:54;10.20;99.90
25092;DHT22;13082;52.374;4.946;2023-04-01T00:49:23;10.20;99.90
25092;DHT22;13082;52.374;4.946;2023-04-01T00:51:52;10.20;99.90
25092;DHT22;13082;52.374;4.946;2023-04-01T00:54:20;10.20;99.90
25092;DHT22;13082;52.374;4.946;2023-04-01T00:56:52;10.20;99.90
25092;DHT22;13082;52.374;4.946;2023-04-01T00:59:31;10.10;99.90
25092;DHT22;13082;52.374;4.946;2023-04-01T01:01:57;10.20;99.90
25092;DHT22;13082;52.374;4.946;2023-04-01T01:04:24;10.20;99.90
25092;DHT22;13082;52.374;4.946;2023-04-01T01:10:22;10.20;99.90
25092;DHT22;13082;52.374;4.946;2023-04-01T01:15:37;10.20;99.90
25092;DHT22;13082;52.374;4.946;2023-04-01T01:18:33;10.20;99.90
25092;DHT22;13082;52.374;4.946;2023-04-01T01:21:28;10.20;99.90
25092;DHT22;13082;52.374;4.946;2023-04-01T01:27:13;10.30;99.90
25092;DHT22;13082;52.374;4.946;2023-04-01T01:37:33;10.30;99.90
25092;DHT22;13082;52.374;4.946;2023-04-01T01:40:05;10.30;99.90
25092;DHT22;13082;52.374;4.946;2023-04-01T01:42:34;10.40;99.90
25092;DHT22;13082;52.374;4.946;2023-04-01T01:45:01;10.40;99.90
25092;DHT22;13082;52.374;4.946;2023-04-01T01:47:28;10.40;99.90
25092;DHT22;13082;52.374;4.946;2023-04-01T01:49:55;10.40;99.90
25092;DHT22;13082;52.374;4.946;2023-04-01T01:52:26;10.40;99.90
25092;DHT22;13082;52.374;4.946;2023-04-01T01:54:55;10.40;99.90
25092;DHT22;13082;52.374;4.946;2023-04-01T01:57:31;10.40;99.90
25092;DHT22;13082;52.374;4.946;2023-04-01T02:00:06;10.40;99.90
25092;DHT22;13082;52.374;4.946;2023-04-01T02:02:45;10.40;99.90
25092;DHT22;13082;52.374;4.946;2023-04-01T02:05:16;10.40;99.90
25092;DHT22;13082;52.374;4.946;2023-04-01T02:07:46;10.40;99.90
25092;DHT22;13082;52.374;4.946;2023-04-01T02:10:14;10.50;99.90
25092;DHT22;13082;52.374;4.946;2023-04-01T02:12:41;10.50;99.90
25092;DHT22;13082;52.374;4.946;2023-04-01T02:15:14;10.50;99.90
25092;DHT22;13082;52.374;4.946;2023-04-01T02:17:43;10.50;99.90
25092;DHT22;13082;52.374;4.946;2023-04-01T02:20:17;10.50;99.90
25092;DHT22;13082;52.374;4.946;2023-04-01T02:22:54;10.50;99.90
25092;DHT22;13082;52.374;4.946;2023-04-01T02:25:25;10.50;99.90
25092;DHT22;13082;52.374;4.946;2023-04-01T02:27:53;10.50;99.90
25092;DHT22;13082;52.374;4.946;2023-04-01T02:30:21;10.50;99.90
25092;DHT22;13082;52.374;4.946;2023-04-01T02:32:46;10.50;99.90
25092;DHT22;13082;52.374;4.946;2023-04-01T02:35:15;10.50;99.90
25092;DHT22;13082;52.374;4.946;2023-04-01T02:37:43;10.60;99.90
25092;DHT22;13082;52.374;4.946;2023-04-01T02:40:12;10.60;99.90
25092;DHT22;13082;52.374;4.946;2023-04-01T02:42:38;10.60;99.90
25092;DHT22;13082;52.374;4.946;2023-04-01T02:45:05;10.60;99.90
25092;DHT22;13082;52.374;4.946;2023-04-01T02:47:30;10.60;99.90
25092;DHT22;13082;52.374;4.946;2023-04-01T02:49:56;10.60;99.90
25092;DHT22;13082;52.374;4.946;2023-04-01T02:52:28;10.60;99.90
25092;DHT22;13082;52.374;4.946;2023-04-01T02:54:55;10.60;99.90
25092;DHT22;13082;52.374;4.946;2023-04-01T02:57:21;10.60;99.90
25092;DHT22;13082;52.374;4.946;2023-04-01T02:59:47;10.70;99.90
25092;DHT22;13082;52.374;4.946;2023-04-01T03:02:13;10.70;99.90
25092;DHT22;13082;52.374;4.946;2023-04-01T03:04:39;10.60;99.90
25092;DHT22;13082;52.374;4.946;2023-04-01T03:07:04;10.60;99.90
25092;DHT22;13082;52.374;4.946;2023-04-01T03:09:30;10.60;99.90
25092;DHT22;13082;52.374;4.946;2023-04-01T03:11:56;10.70;99.90
25092;DHT22;13082;52.374;4.946;2023-04-01T03:14:21;10.70;99.90
25092;DHT22;13082;52.374;4.946;2023-04-01T03:16:47;10.70;99.90
25092;DHT22;13082;52.374;4.946;2023-04-01T03:19:13;10.70;99.90
25092;DHT22;13082;52.374;4.946;2023-04-01T03:21:38;10.70;99.90
25092;DHT22;13082;52.374;4.946;2023-04-01T03:24:04;10.70;99.90
25092;DHT22;13082;52.374;4.946;2023-04-01T03:26:30;10.70;99.90
25092;DHT22;13082;52.374;4.946;2023-04-01T03:28:56;10.70;99.90
25092;DHT22;13082;52.374;4.946;2023-04-01T03:31:21;10.60;99.90
25092;DHT22;13082;52.374;4.946;2023-04-01T03:33:47;10.60;99.90
25092;DHT22;13082;52.374;4.946;2023-04-01T03:36:13;10.60;99.90
25092;DHT22;13082;52.374;4.946;2023-04-01T03:38:42;10.60;99.90
25092;DHT22;13082;52.374;4.946;2023-04-01T03:41:12;10.60;99.90
25092;DHT22;13082;52.374;4.946;2023-04-01T03:43:38;10.70;99.90
25092;DHT22;13082;52.374;4.946;2023-04-01T03:46:04;10.60;99.90
25092;DHT22;13082;52.374;4.946;2023-04-01T03:48:30;10.60;99.90
25092;DHT22;13082;52.374;4.946;2023-04-01T03:50:55;10.60;99.90
25092;DHT22;13082;52.374;4.946;2023-04-01T03:53:21;10.60;99.90
25092;DHT22;13082;52.374;4.946;2023-04-01T03:55:47;10.70;99.90
25092;DHT22;13082;52.374;4.946;2023-04-01T03:58:13;10.70;99.90
25092;DHT22;13082;52.374;4.946;2023-04-01T04:00:38;10.70;99.90
25092;DHT22;13082;52.374;4.946;2023-04-01T04:03:05;10.60;99.90
25092;DHT22;13082;52.374;4.946;2023-04-01T04:05:31;10.70;99.90
25092;DHT22;13082;52.374;4.946;2023-04-01T04:07:57;10.70;99.90
25092;DHT22;13082;52.374;4.946;2023-04-01T04:10:23;10.70;99.90
25092;DHT22;13082;52.374;4.946;2023-04-01T04:12:50;10.70;99.90
25092;DHT22;13082;52.374;4.946;2023-04-01T04:15:16;10.70;99.90
25092;DHT22;13082;52.374;4.946;2023-04-01T04:17:41;10.70;99.90
25092;DHT22;13082;52.374;4.946;2023-04-01T04:20:07;10.80;99.90
25092;DHT22;13082;52.374;4.946;2023-04-01T04:22:34;10.70;99.90
25092;DHT22;13082;52.374;4.946;2023-04-01T04:24:59;10.70;99.90
25092;DHT22;13082;52.374;4.946;2023-04-01T04:27:25;10.80;99.90
25092;DHT22;13082;52.374;4.946;2023-04-01T04:29:51;10.80;99.90
25092;DHT22;13082;52.374;4.946;2023-04-01T04:32:16;10.70;99.90
25092;DHT22;13082;52.374;4.946;2023-04-01T04:34:42;10.70;99.90
25092;DHT22;13082;52.374;4.946;2023-04-01T04:37:07;10.70;99.90
25092;DHT22;13082;52.374;4.946;2023-04-01T04:39:33;10.70;99.90
25092;DHT22;13082;52.374;4.946;2023-04-01T04:41:58;10.70;99.90
25092;DHT22;13082;52.374;4.946;2023-04-01T04:44:24;10.70;99.90
25092;DHT22;13082;52.374;4.946;2023-04-01T04:46:50;10.70;99.90
25092;DHT22;13082;52.374;4.946;2023-04-01T04:49:16;10.70;99.90
25092;DHT22;13082;52.374;4.946;2023-04-01T04:51:41;10.60;99.90
25092;DHT22;13082;52.374;4.946;2023-04-01T04:54:07;10.60;99.90
25092;DHT22;13082;52.374;4.946;2023-04-01T04:56:33;10.60;99.90
25092;DHT22;13082;52.374;4.946;2023-04-01T04:58:59;10.60;99.90
25092;DHT22;13082;52.374;4.946;2023-04-01T05:01:25;10.60;99.90
25092;DHT22;13082;52.374;4.946;2023-04-01T05:03:50;10.60;99.90
25092;DHT22;13082;52.374;4.946;2023-04-01T05:06:17;10.60;99.90
25092;DHT22;13082;52.374;4.946;2023-04-01T05:08:44;10.60;99.90
25092;DHT22;13082;52.374;4.946;2023-04-01T05:11:12;10.50;99.90
25092;DHT22;13082;52.374;4.946;2023-04-01T05:13:39;10.50;99.90
25092;DHT22;13082;52.374;4.946;2023-04-01T05:16:09;10.50;99.90
25092;DHT22;13082;52.374;4.946;2023-04-01T05:18:34;10.50;99.90
25092;DHT22;13082;52.374;4.946;2023-04-01T05:21:00;10.50;99.90
25092;DHT22;13082;52.374;4.946;2023-04-01T05:23:25;10.50;99.90
25092;DHT22;13082;52.374;4.946;2023-04-01T05:25:51;10.50;99.90
25092;DHT22;13082;52.374;4.946;2023-04-01T05:28:19;10.50;99.90
25092;DHT22;13082;52.374;4.946;2023-04-01T05:30:45;10.50;99.90
25092;DHT22;13082;52.374;4.946;2023-04-01T05:33:12;10.60;99.90
25092;DHT22;13082;52.374;4.946;2023-04-01T05:35:39;10.50;99.90
25092;DHT22;13082;52.374;4.946;2023-04-01T05:38:04;10.50;99.90
25092;DHT22;13082;52.374;4.946;2023-04-01T05:40:31;10.50;99.90
25092;DHT22;13082;52.374;4.946;2023-04-01T05:42:57;10.50;99.90
25092;DHT22;13082;52.374;4.946;2023-04-01T05:45:23;10.50;99.90
25092;DHT22;13082;52.374;4.946;2023-04-01T05:47:48;10.50;99.90
25092;DHT22;13082;52.374;4.946;2023-04-01T05:50:14;10.50;99.90
25092;DHT22;13082;52.374;4.946;2023-04-01T05:52:40;10.50;99.90
25092;DHT22;13082;52.374;4.946;2023-04-01T05:55:06;10.60;99.90
25092;DHT22;13082;52.374;4.946;2023-04-01T05:57:32;10.60;99.90
25092;DHT22;13082;52.374;4.946;2023-04-01T05:59:58;10.60;99.90
25092;DHT22;13082;52.374;4.946;2023-04-01T06:02:23;10.60;99.90
25092;DHT22;13082;52.374;4.946;2023-04-01T06:04:49;10.60;99.90
25092;DHT22;13082;52.374;4.946;2023-04-01T06:07:18;10.50;99.90
25092;DHT22;13082;52.374;4.946;2023-04-01T06:09:44;10.50;99.90
25092;DHT22;13082;52.374;4.946;2023-04-01T06:12:19;10.50;99.90
25092;DHT22;13082;52.374;4.946;2023-04-01T06:17:38;10.40;99.90
25092;DHT22;13082;52.374;4.946;2023-04-01T06:23:01;10.40;99.90
25092;DHT22;13082;52.374;4.946;2023-04-01T06:31:36;10.30;99.90
25092;DHT22;13082;52.374;4.946;2023-04-01T06:37:45;10.40;99.90
25092;DHT22;13082;52.374;4.946;2023-04-01T06:43:18;10.40;99.90
25092;DHT22;13082;52.374;4.946;2023-04-01T06:49:11;10.40;99.90
25092;DHT22;13082;52.374;4.946;2023-04-01T06:54:38;10.40;99.90
25092;DHT22;13082;52.374;4.946;2023-04-01T06:57:53;10.40;99.90
25092;DHT22;13082;52.374;4.946;2023-04-01T07:00:02;10.40;99.90
25092;DHT22;13082;52.374;4.946;2023-04-01T07:02:37;10.40;99.90
25092;DHT22;13082;52.374;4.946;2023-04-01T07:05:04;10.40;99.90
25092;DHT22;13082;52.374;4.946;2023-04-01T07:07:42;10.50;99.90
25092;DHT22;13082;52.374;4.946;2023-04-01T07:10:33;10.50;99.90
25092;DHT22;13082;52.374;4.946;2023-04-01T07:13:04;10.50;99.90
25092;DHT22;13082;52.374;4.946;2023-04-01T07:15:41;10.50;99.90
25092;DHT22;13082;52.374;4.946;2023-04-01T07:18:21;10.50;99.90
25092;DHT22;13082;52.374;4.946;2023-04-01T07:20:50;10.50;99.90
25092;DHT22;13082;52.374;4.946;2023-04-01T07:23:26;10.50;99.90
25092;DHT22;13082;52.374;4.946;2023-04-01T07:26:01;10.50;99.90
25092;DHT22;13082;52.374;4.946;2023-04-01T07:28:31;10.50;99.90
25092;DHT22;13082;52.374;4.946;2023-04-01T07:31:07;10.50;99.90
25092;DHT22;13082;52.374;4.946;2023-04-01T07:33:58;10.50;99.90
25092;DHT22;13082;52.374;4.946;2023-04-01T07:36:45;10.50;99.90
25092;DHT22;13082;52.374;4.946;2023-04-01T07:39:30;10.50;99.90
25092;DHT22;13082;52.374;4.946;2023-04-01T07:53:11;10.70;99.90
25092;DHT22;13082;52.374;4.946;2023-04-01T07:59:05;10.70;99.90
25092;DHT22;13082;52.374;4.946;2023-04-01T08:07:18;10.70;99.90
25092;DHT22;13082;52.374;4.946;2023-04-01T08:21:24;10.80;99.90
25092;DHT22;13082;52.374;4.946;2023-04-01T08:23:58;10.80;99.90
25092;DHT22;13082;52.374;4.946;2023-04-01T08:34:25;10.90;99.90
25092;DHT22;13082;52.374;4.946;2023-04-01T08:36:59;10.90;99.90
25092;DHT22;13082;52.374;4.946;2023-04-01T08:39:34;11.00;99.90
25092;DHT22;13082;52.374;4.946;2023-04-01T08:42:43;11.00;99.90
25092;DHT22;13082;52.374;4.946;2023-04-01T09:04:38;11.00;99.90
25092;DHT22;13082;52.374;4.946;2023-04-01T09:07:32;11.10;99.90
25092;DHT22;13082;52.374;4.946;2023-04-01T09:12:54;11.00;99.90
25092;DHT22;13082;52.374;4.946;2023-04-01T09:26:51;11.20;99.90
25092;DHT22;13082;52.374;4.946;2023-04-01T09:36:07;11.30;99.90
25092;DHT22;13082;52.374;4.946;2023-04-01T09:38:29;11.30;99.90
25092;DHT22;13082;52.374;4.946;2023-04-01T09:43:54;11.30;99.90
25092;DHT22;13082;52.374;4.946;2023-04-01T09:49:13;11.20;99.90
25092;DHT22;13082;52.374;4.946;2023-04-01T09:51:59;11.20;99.90
25092;DHT22;13082;52.374;4.946;2023-04-01T10:03:53;11.30;99.90
25092;DHT22;13082;52.374;4.946;2023-04-01T10:06:55;11.30;99.90
25092;DHT22;13082;52.374;4.946;2023-04-01T10:17:54;11.20;99.90
25092;DHT22;13082;52.374;4.946;2023-04-01T10:20:40;11.20;99.90
25092;DHT22;13082;52.374;4.946;2023-04-01T10:56:46;11.70;99.90
25092;DHT22;13082;52.374;4.946;2023-04-01T11:02:12;11.70;99.90
25092;DHT22;13082;52.374;4.946;2023-04-01T11:44:25;11.80;99.90
25092;DHT22;13082;52.374;4.946;2023-04-01T11:49:57;12.00;99.90
25092;DHT22;13082;52.374;4.946;2023-04-01T12:16:52;12.10;99.90
25092;DHT22;13082;52.374;4.946;2023-04-01T12:19:26;12.10;99.90
25092;DHT22;13082;52.374;4.946;2023-04-01T12:31:16;12.10;99.90
25092;DHT22;13082;52.374;4.946;2023-04-01T12:45:33;12.10;99.90
25092;DHT22;13082;52.374;4.946;2023-04-01T12:53:31;12.00;99.90
25092;DHT22;13082;52.374;4.946;2023-04-01T12:56:09;12.00;99.90
25092;DHT22;13082;52.374;4.946;2023-04-01T13:02:02;12.00;99.90
25092;DHT22;13082;52.374;4.946;2023-04-01T13:05:11;12.00;99.90
25092;DHT22;13082;52.374;4.946;2023-04-01T13:11:07;12.00;99.90
25092;DHT22;13082;52.374;4.946;2023-04-01T13:13:55;11.90;99.90
25092;DHT22;13082;52.374;4.946;2023-04-01T13:16:31;11.80;99.90
25092;DHT22;13082;52.374;4.946;2023-04-01T13:19:07;11.80;99.90
25092;DHT22;13082;52.374;4.946;2023-04-01T13:30:07;11.80;99.90
25092;DHT22;13082;52.374;4.946;2023-04-01T13:35:26;11.70;99.90
25092;DHT22;13082;52.374;4.946;2023-04-01T13:43:41;11.60;99.90
25092;DHT22;13082;52.374;4.946;2023-04-01T13:51:56;11.60;99.90
25092;DHT22;13082;52.374;4.946;2023-04-01T14:17:01;11.30;99.90
25092;DHT22;13082;52.374;4.946;2023-04-01T14:22:28;11.30;99.90
25092;DHT22;13082;52.374;4.946;2023-04-01T14:30:51;11.40;99.90
25092;DHT22;13082;52.374;4.946;2023-04-01T14:36:26;11.30;99.90
25092;DHT22;13082;52.374;4.946;2023-04-01T14:41:53;11.30;99.90
25092;DHT22;13082;52.374;4.946;2023-04-01T14:49:39;11.20;99.90
25092;DHT22;13082;52.374;4.946;2023-04-01T14:52:31;11.20;99.90
25092;DHT22;13082;52.374;4.946;2023-04-01T14:55:00;11.20;99.90
25092;DHT22;13082;52.374;4.946;2023-04-01T14:57:31;11.20;99.90
25092;DHT22;13082;52.374;4.946;2023-04-01T15:00:17;11.20;99.90
25092;DHT22;13082;52.374;4.946;2023-04-01T15:05:46;11.20;99.90
25092;DHT22;13082;52.374;4.946;2023-04-01T15:13:58;11.10;99.90
25092;DHT22;13082;52.374;4.946;2023-04-01T15:28:07;11.10;99.90
25092;DHT22;13082;52.374;4.946;2023-04-01T15:39:44;11.00;99.90
25092;DHT22;13082;52.374;4.946;2023-04-01T15:52:43;11.10;99.90
25092;DHT22;13082;52.374;4.946;2023-04-01T15:55:41;11.10;99.90
25092;DHT22;13082;52.374;4.946;2023-04-01T16:01:07;11.00;99.90
25092;DHT22;13082;52.374;4.946;2023-04-01T16:03:57;11.00;99.90
25092;DHT22;13082;52.374;4.946;2023-04-01T16:12:19;11.00;99.90
25092;DHT22;13082;52.374;4.946;2023-04-01T16:17:59;11.00;99.90
25092;DHT22;13082;52.374;4.946;2023-04-01T16:20:50;11.00;99.90
25092;DHT22;13082;52.374;4.946;2023-04-01T16:23:30;11.00;99.90
25092;DHT22;13082;52.374;4.946;2023-04-01T16:26:29;11.00;99.90
25092;DHT22;13082;52.374;4.946;2023-04-01T16:32:27;10.90;99.90
25092;DHT22;13082;52.374;4.946;2023-04-01T16:37:38;10.80;99.90
25092;DHT22;13082;52.374;4.946;2023-04-01T16:40:46;10.80;99.90
25092;DHT22;13082;52.374;4.946;2023-04-01T16:45:45;10.80;99.90
25092;DHT22;13082;52.374;4.946;2023-04-01T16:48:20;10.70;99.90
25092;DHT22;13082;52.374;4.946;2023-04-01T16:51:04;10.70;99.90
25092;DHT22;13082;52.374;4.946;2023-04-01T16:56:20;10.60;99.90
25092;DHT22;13082;52.374;4.946;2023-04-01T17:01:55;10.40;99.90
25092;DHT22;13082;52.374;4.946;2023-04-01T17:07:49;10.30;99.90
25092;DHT22;13082;52.374;4.946;2023-04-01T17:10:37;10.30;99.90
25092;DHT22;13082;52.374;4.946;2023-04-01T17:24:01;10.30;99.90
25092;DHT22;13082;52.374;4.946;2023-04-01T17:29:26;10.20;99.90
25092;DHT22;13082;52.374;4.946;2023-04-01T17:40:33;10.20;99.90
25092;DHT22;13082;52.374;4.946;2023-04-01T17:46:19;10.10;99.90
25092;DHT22;13082;52.374;4.946;2023-04-01T17:54:08;10.10;99.90
25092;DHT22;13082;52.374;4.946;2023-04-01T18:02:21;10.10;99.90
25092;DHT22;13082;52.374;4.946;2023-04-01T18:05:26;10.10;99.90
25092;DHT22;13082;52.374;4.946;2023-04-01T18:08:02;10.10;99.90
25092;DHT22;13082;52.374;4.946;2023-04-01T18:13:57;10.00;99.90
25092;DHT22;13082;52.374;4.946;2023-04-01T18:16:51;10.00;99.90
25092;DHT22;13082;52.374;4.946;2023-04-01T18:25:28;9.90;99.90
25092;DHT22;13082;52.374;4.946;2023-04-01T18:31:09;9.90;99.90
25092;DHT22;13082;52.374;4.946;2023-04-01T18:39:33;9.80;99.90
25092;DHT22;13082;52.374;4.946;2023-04-01T18:47:47;9.80;99.90
25092;DHT22;13082;52.374;4.946;2023-04-01T18:53:08;9.80;99.90
25092;DHT22;13082;52.374;4.946;2023-04-01T18:56:00;9.80;99.90
25092;DHT22;13082;52.374;4.946;2023-04-01T18:58:28;9.80;99.90
25092;DHT22;13082;52.374;4.946;2023-04-01T19:06:51;9.70;99.90
25092;DHT22;13082;52.374;4.946;2023-04-01T19:17:45;9.70;99.90
25092;DHT22;13082;52.374;4.946;2023-04-01T19:20:37;9.60;99.90
25092;DHT22;13082;52.374;4.946;2023-04-01T19:25:57;9.60;99.90
25092;DHT22;13082;52.374;4.946;2023-04-01T19:31:39;9.60;99.90
25092;DHT22;13082;52.374;4.946;2023-04-01T19:37:19;9.50;99.90
25092;DHT22;13082;52.374;4.946;2023-04-01T19:42:40;9.40;99.90
25092;DHT22;13082;52.374;4.946;2023-04-01T19:48:03;9.30;99.90
25092;DHT22;13082;52.374;4.946;2023-04-01T19:50:38;9.30;99.90
25092;DHT22;13082;52.374;4.946;2023-04-01T20:02:19;9.20;99.90
25092;DHT22;13082;52.374;4.946;2023-04-01T20:04:56;9.20;99.90
25092;DHT22;13082;52.374;4.946;2023-04-01T20:07:35;9.30;99.90
25092;DHT22;13082;52.374;4.946;2023-04-01T20:10:13;9.20;99.90
25092;DHT22;13082;52.374;4.946;2023-04-01T20:12:55;9.20;99.90
25092;DHT22;13082;52.374;4.946;2023-04-01T20:15:36;9.10;99.90
25092;DHT22;13082;52.374;4.946;2023-04-01T20:18:08;9.00;99.90
25092;DHT22;13082;52.374;4.946;2023-04-01T20:20:39;9.00;99.90
25092;DHT22;13082;52.374;4.946;2023-04-01T20:23:39;9.00;99.90
25092;DHT22;13082;52.374;4.946;2023-04-01T20:26:12;9.00;99.90
25092;DHT22;13082;52.374;4.946;2023-04-01T20:28:45;9.00;99.90
25092;DHT22;13082;52.374;4.946;2023-04-01T20:31:30;8.90;99.90
25092;DHT22;13082;52.374;4.946;2023-04-01T20:50:50;8.80;99.90
25092;DHT22;13082;52.374;4.946;2023-04-01T21:09:41;8.70;99.90
25092;DHT22;13082;52.374;4.946;2023-04-01T21:12:46;8.70;99.90
25092;DHT22;13082;52.374;4.946;2023-04-01T21:26:49;8.60;99.90
25092;DHT22;13082;52.374;4.946;2023-04-01T21:38:28;8.60;99.90
25092;DHT22;13082;52.374;4.946;2023-04-01T21:41:34;8.60;99.90
25092;DHT22;13082;52.374;4.946;2023-04-01T21:47:17;8.50;99.90
25092;DHT22;13082;52.374;4.946;2023-04-01T21:56:01;8.50;99.90
25092;DHT22;13082;52.374;4.946;2023-04-01T21:59:01;8.50;99.90
25092;DHT22;13082;52.374;4.946;2023-04-01T22:04:56;8.40;99.90
25092;DHT22;13082;52.374;4.946;2023-04-01T22:07:34;8.50;99.90
25092;DHT22;13082;52.374;4.946;2023-04-01T22:15:58;8.40;99.90
25092;DHT22;13082;52.374;4.946;2023-04-01T22:18:34;8.50;99.90
25092;DHT22;13082;52.374;4.946;2023-04-01T22:21:14;8.40;99.90
25092;DHT22;13082;52.374;4.946;2023-04-01T22:29:23;8.40;99.90
25092;DHT22;13082;52.374;4.946;2023-04-01T22:32:11;8.40;99.90
25092;DHT22;13082;52.374;4.946;2023-04-01T22:34:59;8.40;99.90
25092;DHT22;13082;52.374;4.946;2023-04-01T22:40:47;8.40;99.90
25092;DHT22;13082;52.374;4.946;2023-04-01T22:43:22;8.30;99.90
25092;DHT22;13082;52.374;4.946;2023-04-01T22:48:45;8.30;99.90
25092;DHT22;13082;52.374;4.946;2023-04-01T22:51:22;8.30;99.90
25092;DHT22;13082;52.374;4.946;2023-04-01T22:54:29;8.20;99.90
25092;DHT22;13082;52.374;4.946;2023-04-01T22:59:42;8.20;99.90
25092;DHT22;13082;52.374;4.946;2023-04-01T23:03:01;8.20;99.90
25092;DHT22;13082;52.374;4.946;2023-04-01T23:05:05;8.20;99.90
25092;DHT22;13082;52.374;4.946;2023-04-01T23:10:50;8.20;99.90
25092;DHT22;13082;52.374;4.946;2023-04-01T23:13:26;8.10;99.90
25092;DHT22;13082;52.374;4.946;2023-04-01T23:15:53;8.10;99.90
25092;DHT22;13082;52.374;4.946;2023-04-01T23:18:30;8.10;99.90
25092;DHT22;13082;52.374;4.946;2023-04-01T23:21:18;8.00;99.90
25092;DHT22;13082;52.374;4.946;2023-04-01T23:27:08;8.00;99.90
25092;DHT22;13082;52.374;4.946;2023-04-01T23:29:37;8.10;99.90
25092;DHT22;13082;52.374;4.946;2023-04-01T23:32:34;8.10;99.90
25092;DHT22;13082;52.374;4.946;2023-04-01T23:35:00;8.10;99.90
25092;DHT22;13082;52.374;4.946;2023-04-01T23:37:26;8.10;99.90
25092;DHT22;13082;52.374;4.946;2023-04-01T23:39:54;8.10;99.90
25092;DHT22;13082;52.374;4.946;2023-04-01T23:42:33;8.10;99.90
25092;DHT22;13082;52.374;4.946;2023-04-01T23:45:05;8.10;99.90
25092;DHT22;13082;52.374;4.946;2023-04-01T23:47:39;8.10;99.90
25092;DHT22;13082;52.374;4.946;2023-04-01T23:50:17;8.00;99.90
25092;DHT22;13082;52.374;4.946;2023-04-01T23:52:52;8.00;99.90
25092;DHT22;13082;52.374;4.946;2023-04-01T23:55:27;8.00;99.90
